createdAt,value
2022-12-31T00:00:22.145Z,8.07
2022-12-31T00:02:49.173Z,11.55
2022-12-31T00:05:17.774Z,12.30
2022-12-31T00:07:44.669Z,14.40
2022-12-31T00:10:11.618Z,11.82
2022-12-31T00:12:38.431Z,11.20
2022-12-31T00:15:06.143Z,17.90
2022-12-31T00:17:33.575Z,8.60
2022-12-31T00:20:00.475Z,16.48
2022-12-31T00:22:28.905Z,23.42
2022-12-31T00:24:56.276Z,10.80
2022-12-31T00:27:23.163Z,8.43
2022-12-31T00:29:50.159Z,11.70
2022-12-31T00:32:17.116Z,8.95
2022-12-31T00:34:44.126Z,12.23
2022-12-31T00:37:11.512Z,18.02
2022-12-31T00:39:39.984Z,13.35
2022-12-31T00:42:06.952Z,12.93
2022-12-31T00:44:33.895Z,12.20
2022-12-31T00:47:00.738Z,15.57
2022-12-31T00:49:27.759Z,16.17
2022-12-31T00:51:54.855Z,15.35
2022-12-31T00:54:21.763Z,17.17
2022-12-31T00:56:50.044Z,10.00
2022-12-31T00:59:17.227Z,18.70
2022-12-31T01:01:44.151Z,21.25
2022-12-31T01:04:13.728Z,17.08
2022-12-31T01:06:41.491Z,16.50
2022-12-31T01:09:09.640Z,13.45
2022-12-31T01:11:36.580Z,16.60
2022-12-31T01:14:06.948Z,15.20
2022-12-31T01:16:36.997Z,16.17
2022-12-31T01:19:06.284Z,12.18
2022-12-31T01:21:35.649Z,16.13
2022-12-31T01:24:02.584Z,16.38
2022-12-31T01:26:29.871Z,22.15
2022-12-31T01:28:56.965Z,9.15
2022-12-31T01:31:26.184Z,15.00
2022-12-31T01:33:53.850Z,15.85
2022-12-31T01:36:26.106Z,14.75
2022-12-31T01:38:54.260Z,15.20
2022-12-31T01:41:24.446Z,17.10
2022-12-31T01:43:56.749Z,12.52
2022-12-31T01:46:33.402Z,11.57
2022-12-31T01:49:03.236Z,14.45
2022-12-31T01:51:33.463Z,12.43
2022-12-31T01:54:03.317Z,13.05
2022-12-31T01:56:30.736Z,7.25
2022-12-31T01:58:59.018Z,11.40
2022-12-31T02:01:32.803Z,19.30
2022-12-31T02:04:05.484Z,10.70
2022-12-31T02:06:39.132Z,13.38
2022-12-31T02:09:09.449Z,15.65
2022-12-31T02:11:38.297Z,12.45
2022-12-31T02:14:08.302Z,14.48
2022-12-31T02:16:46.194Z,12.65
2022-12-31T02:19:48.433Z,7.82
2022-12-31T02:22:26.569Z,13.15
2022-12-31T02:25:14.212Z,14.50
2022-12-31T02:27:48.848Z,18.90
2022-12-31T02:30:19.585Z,12.80
2022-12-31T02:33:01.771Z,16.52
2022-12-31T02:35:31.752Z,11.65
2022-12-31T02:38:05.152Z,12.23
2022-12-31T02:40:45.474Z,10.95
2022-12-31T02:43:12.740Z,13.55
2022-12-31T02:46:03.455Z,16.25
2022-12-31T02:48:44.439Z,14.52
2022-12-31T02:51:26.407Z,9.50
2022-12-31T02:54:09.741Z,14.52
2022-12-31T02:56:42.843Z,9.88
2022-12-31T02:59:34.636Z,7.25
2022-12-31T03:02:16.004Z,14.52
2022-12-31T03:04:46.335Z,10.55
2022-12-31T03:07:18.500Z,14.32
2022-12-31T03:09:45.379Z,10.73
2022-12-31T03:12:33.113Z,8.40
2022-12-31T03:15:00.730Z,15.30
2022-12-31T03:17:29.371Z,14.35
2022-12-31T03:20:15.143Z,16.50
2022-12-31T03:22:45.027Z,16.02
2022-12-31T03:25:33.460Z,13.27
2022-12-31T03:28:01.588Z,15.60
2022-12-31T03:30:28.856Z,20.60
2022-12-31T03:33:01.760Z,14.55
2022-12-31T03:35:30.313Z,15.88
2022-12-31T03:38:02.536Z,17.77
2022-12-31T03:40:35.030Z,18.02
2022-12-31T03:43:03.293Z,17.63
2022-12-31T03:45:30.826Z,20.25
2022-12-31T03:47:59.264Z,20.83
2022-12-31T03:50:29.063Z,19.50
2022-12-31T03:52:58.931Z,23.58
2022-12-31T03:55:26.217Z,14.98
2022-12-31T03:57:56.095Z,25.20
2022-12-31T04:00:24.422Z,15.48
2022-12-31T04:02:51.672Z,15.10
2022-12-31T04:05:25.665Z,22.05
2022-12-31T04:07:53.527Z,19.70
2022-12-31T04:10:20.724Z,18.90
2022-12-31T04:12:47.833Z,20.05
2022-12-31T04:15:18.074Z,16.88
2022-12-31T04:17:46.075Z,13.15
2022-12-31T04:20:18.760Z,15.18
2022-12-31T04:22:50.151Z,18.33
2022-12-31T04:25:25.520Z,22.50
2022-12-31T04:27:53.870Z,35.30
2022-12-31T04:30:22.028Z,9.40
2022-12-31T04:32:51.981Z,17.40
2022-12-31T04:41:21.139Z,17.35
2022-12-31T04:46:38.230Z,14.57
2022-12-31T04:49:07.691Z,11.30
2022-12-31T04:51:35.570Z,13.38
2022-12-31T04:54:05.297Z,13.23
2022-12-31T05:04:23.615Z,16.02
2022-12-31T05:06:51.270Z,15.13
2022-12-31T05:09:20.192Z,12.63
2022-12-31T05:11:47.437Z,13.35
2022-12-31T05:14:16.239Z,17.23
2022-12-31T05:16:43.213Z,12.77
2022-12-31T05:19:10.147Z,10.40
2022-12-31T05:21:37.160Z,10.88
2022-12-31T05:29:52.177Z,16.42
2022-12-31T05:32:21.565Z,8.73
2022-12-31T05:34:53.045Z,10.82
2022-12-31T05:37:20.403Z,10.27
2022-12-31T05:39:49.356Z,10.10
2022-12-31T05:42:18.152Z,13.43
2022-12-31T05:44:45.998Z,10.80
2022-12-31T05:47:16.537Z,14.50
2022-12-31T05:49:45.078Z,13.80
2022-12-31T05:54:54.487Z,15.80
2022-12-31T05:57:22.899Z,12.35
2022-12-31T05:59:50.087Z,15.75
2022-12-31T06:02:17.798Z,15.27
2022-12-31T06:04:44.895Z,11.93
2022-12-31T06:07:11.885Z,11.02
2022-12-31T06:09:39.348Z,12.73
2022-12-31T06:12:06.848Z,11.05
2022-12-31T06:14:42.190Z,12.80
2022-12-31T06:17:12.300Z,11.45
2022-12-31T06:19:39.750Z,14.27
2022-12-31T06:22:09.660Z,11.25
2022-12-31T06:24:36.820Z,12.32
2022-12-31T06:27:03.930Z,11.57
2022-12-31T06:29:31.133Z,12.25
2022-12-31T06:32:03.259Z,14.57
2022-12-31T06:34:32.223Z,13.60
2022-12-31T06:42:38.600Z,12.50
2022-12-31T06:45:09.702Z,12.73
2022-12-31T06:56:18.929Z,13.45
2022-12-31T06:58:48.407Z,23.13
2022-12-31T07:01:37.468Z,14.65
2022-12-31T07:04:36.281Z,21.00
2022-12-31T07:07:17.062Z,13.20
2022-12-31T07:09:55.964Z,25.25
2022-12-31T07:12:39.481Z,12.57
2022-12-31T07:15:19.977Z,20.65
2022-12-31T07:20:51.293Z,13.48
2022-12-31T07:23:19.117Z,19.02
2022-12-31T07:25:55.967Z,15.30
2022-12-31T07:28:40.735Z,17.30
2022-12-31T07:31:22.944Z,20.65
2022-12-31T07:33:59.264Z,31.60
2022-12-31T07:36:54.225Z,29.10
2022-12-31T07:39:28.440Z,16.80
2022-12-31T07:42:05.191Z,19.85
2022-12-31T07:44:42.471Z,21.98
2022-12-31T07:47:22.120Z,19.20
2022-12-31T07:49:50.021Z,16.83
2022-12-31T07:52:20.440Z,23.10
2022-12-31T07:54:49.134Z,22.65
2022-12-31T07:57:18.033Z,23.17
2022-12-31T08:02:26.959Z,87.30
2022-12-31T08:05:02.469Z,25.90
2022-12-31T08:07:41.738Z,28.70
2022-12-31T08:10:18.089Z,16.63
2022-12-31T08:12:47.430Z,43.30
2022-12-31T08:15:18.038Z,29.58
2022-12-31T08:17:45.719Z,16.55
2022-12-31T08:20:14.875Z,27.23
2022-12-31T08:23:14.121Z,14.80
2022-12-31T08:25:56.463Z,10.63
2022-12-31T08:28:36.270Z,19.42
2022-12-31T08:31:09.684Z,11.15
2022-12-31T08:33:49.165Z,16.15
2022-12-31T08:36:24.368Z,28.80
2022-12-31T08:38:58.151Z,9.75
2022-12-31T08:41:30.625Z,10.23
2022-12-31T08:44:10.687Z,26.48
2022-12-31T08:46:47.022Z,7.90
2022-12-31T08:49:15.107Z,10.82
2022-12-31T08:51:42.529Z,13.07
2022-12-31T08:54:13.288Z,10.05
2022-12-31T08:56:50.304Z,14.30
2022-12-31T08:59:36.490Z,15.57
2022-12-31T09:02:36.428Z,18.58
2022-12-31T09:05:14.796Z,20.40
2022-12-31T09:07:50.362Z,23.48
2022-12-31T09:10:27.151Z,49.25
2022-12-31T09:13:02.723Z,12.30
2022-12-31T09:15:34.064Z,29.67
2022-12-31T09:18:01.408Z,22.17
2022-12-31T09:20:42.473Z,49.88
2022-12-31T09:23:12.425Z,20.13
2022-12-31T09:25:46.948Z,50.65
2022-12-31T09:28:16.849Z,24.63
2022-12-31T09:30:50.943Z,13.88
2022-12-31T09:33:31.708Z,12.73
2022-12-31T09:36:03.700Z,28.25
2022-12-31T09:38:37.807Z,36.30
2022-12-31T09:41:15.595Z,50.55
2022-12-31T09:44:19.899Z,49.08
2022-12-31T09:47:24.800Z,14.60
2022-12-31T09:53:10.786Z,19.50
2022-12-31T09:55:45.573Z,32.78
2022-12-31T09:58:32.510Z,18.45
2022-12-31T10:01:07.119Z,15.85
2022-12-31T10:03:54.403Z,46.47
2022-12-31T10:06:27.855Z,19.40
2022-12-31T10:09:25.611Z,14.07
2022-12-31T10:12:24.323Z,22.60
2022-12-31T10:15:13.040Z,26.35
2022-12-31T10:17:54.651Z,14.93
2022-12-31T10:20:41.572Z,34.67
2022-12-31T10:23:31.761Z,23.23
2022-12-31T10:26:16.781Z,26.02
2022-12-31T10:28:54.003Z,22.77
2022-12-31T10:31:39.543Z,12.77
2022-12-31T10:34:16.221Z,19.77
2022-12-31T10:36:53.988Z,15.55
2022-12-31T10:39:31.271Z,46.88
2022-12-31T10:42:30.037Z,32.28
2022-12-31T10:45:23.422Z,18.30
2022-12-31T10:48:30.098Z,34.20
2022-12-31T10:51:27.362Z,17.05
2022-12-31T10:54:35.344Z,21.50
2022-12-31T10:57:25.621Z,64.65
2022-12-31T11:00:17.243Z,69.20
2022-12-31T11:03:16.660Z,32.30
2022-12-31T11:06:16.058Z,27.38
2022-12-31T11:09:21.406Z,35.33
2022-12-31T11:11:58.698Z,23.25
2022-12-31T11:14:49.263Z,34.35
2022-12-31T11:17:37.768Z,43.45
2022-12-31T11:20:32.333Z,22.83
2022-12-31T11:23:15.343Z,27.63
2022-12-31T11:25:55.222Z,35.58
2022-12-31T11:28:40.240Z,31.42
2022-12-31T11:31:20.127Z,28.75
2022-12-31T11:34:10.697Z,30.08
2022-12-31T11:36:45.293Z,16.55
2022-12-31T11:39:31.442Z,23.08
2022-12-31T11:42:07.795Z,24.15
2022-12-31T11:44:45.210Z,18.73
2022-12-31T11:47:49.640Z,21.95
2022-12-31T11:50:38.644Z,13.02
2022-12-31T11:53:26.542Z,14.80
2022-12-31T11:56:03.479Z,18.70
2022-12-31T11:58:30.600Z,21.90
2022-12-31T12:01:01.023Z,16.98
2022-12-31T12:03:28.327Z,36.35
2022-12-31T12:05:57.521Z,15.27
2022-12-31T12:08:26.233Z,14.13
2022-12-31T12:11:00.836Z,11.10
2022-12-31T12:13:29.123Z,22.05
2022-12-31T12:15:59.046Z,40.65
2022-12-31T12:18:36.122Z,25.95
2022-12-31T12:21:06.510Z,20.70
2022-12-31T12:23:33.449Z,11.25
2022-12-31T12:26:00.460Z,12.57
2022-12-31T12:28:30.944Z,15.13
2022-12-31T12:31:00.468Z,20.23
2022-12-31T12:36:07.004Z,12.63
2022-12-31T12:38:33.909Z,11.68
2022-12-31T12:41:03.199Z,27.05
2022-12-31T12:43:33.661Z,16.00
2022-12-31T12:46:02.460Z,51.15
2022-12-31T12:48:37.757Z,57.50
2022-12-31T12:51:19.201Z,77.28
2022-12-31T12:53:53.077Z,51.65
2022-12-31T12:56:36.029Z,35.17
2022-12-31T12:59:37.307Z,17.10
2022-12-31T13:02:23.211Z,13.77
2022-12-31T13:05:04.082Z,10.38
2022-12-31T13:07:46.819Z,21.95
2022-12-31T13:10:29.411Z,10.63
2022-12-31T13:13:23.414Z,13.82
2022-12-31T13:16:02.252Z,10.18
2022-12-31T13:18:43.743Z,13.80
2022-12-31T13:21:24.035Z,29.60
2022-12-31T13:23:56.089Z,11.40
2022-12-31T13:26:27.799Z,23.58
2022-12-31T13:28:56.443Z,16.88
2022-12-31T13:31:31.706Z,15.82
2022-12-31T13:34:04.472Z,36.28
2022-12-31T13:36:35.405Z,19.63
2022-12-31T13:39:07.918Z,17.55
2022-12-31T13:41:41.053Z,57.75
2022-12-31T13:44:14.206Z,11.77
2022-12-31T13:46:47.649Z,25.70
2022-12-31T13:49:18.976Z,35.00
2022-12-31T13:51:48.096Z,14.77
2022-12-31T13:54:28.901Z,23.25
2022-12-31T13:57:01.124Z,13.85
2022-12-31T13:59:32.999Z,9.70
2022-12-31T14:02:08.933Z,8.52
2022-12-31T14:04:42.033Z,22.50
2022-12-31T14:07:15.717Z,11.80
2022-12-31T14:09:42.857Z,15.73
2022-12-31T14:12:23.215Z,16.23
2022-12-31T14:14:57.563Z,14.18
2022-12-31T14:17:33.804Z,20.73
2022-12-31T14:20:11.387Z,15.32
2022-12-31T14:22:43.553Z,23.23
2022-12-31T14:25:21.251Z,14.02
2022-12-31T14:27:51.335Z,37.25
2022-12-31T14:30:21.088Z,22.63
2022-12-31T14:33:09.673Z,15.40
2022-12-31T14:35:52.870Z,67.07
2022-12-31T14:38:29.622Z,43.33
2022-12-31T14:41:10.056Z,15.00
2022-12-31T14:43:47.979Z,76.30
2022-12-31T14:46:25.480Z,34.80
2022-12-31T14:49:05.718Z,44.25
2022-12-31T14:51:35.759Z,57.83
2022-12-31T14:54:02.673Z,32.10
2022-12-31T14:56:32.472Z,36.83
2022-12-31T14:59:00.720Z,41.33
2022-12-31T15:01:28.172Z,17.63
2022-12-31T15:03:58.280Z,23.88
2022-12-31T15:06:55.874Z,34.92
2022-12-31T15:09:44.488Z,24.92
2022-12-31T15:12:29.136Z,28.35
2022-12-31T15:15:33.470Z,23.85
2022-12-31T15:18:18.740Z,60.05
2022-12-31T15:21:09.698Z,24.15
2022-12-31T15:23:38.278Z,36.90
2022-12-31T15:26:06.312Z,18.95
2022-12-31T15:28:35.461Z,19.70
2022-12-31T15:31:18.605Z,35.15
2022-12-31T15:33:55.941Z,61.40
2022-12-31T15:36:25.945Z,20.13
2022-12-31T15:39:05.043Z,18.95
2022-12-31T15:41:38.697Z,28.85
2022-12-31T15:44:13.946Z,21.17
2022-12-31T15:46:44.148Z,161.30
2022-12-31T15:49:16.684Z,31.33
2022-12-31T15:51:49.610Z,19.58
2022-12-31T15:54:27.756Z,20.85
2022-12-31T15:56:57.136Z,15.60
2022-12-31T15:59:26.238Z,14.75
2022-12-31T16:01:55.669Z,19.33
2022-12-31T16:04:26.535Z,19.38
2022-12-31T16:06:59.514Z,31.88
2022-12-31T16:09:29.778Z,16.67
2022-12-31T16:12:02.107Z,30.02
2022-12-31T16:14:35.195Z,17.70
2022-12-31T16:17:02.665Z,31.52
2022-12-31T16:19:35.105Z,77.50
2022-12-31T16:22:09.254Z,22.73
2022-12-31T16:25:02.812Z,66.47
2022-12-31T16:27:28.904Z,15.35
2022-12-31T16:29:59.857Z,27.55
2022-12-31T16:32:26.937Z,32.50
2022-12-31T16:34:54.934Z,12.48
2022-12-31T16:37:23.620Z,31.20
2022-12-31T16:40:18.917Z,13.27
2022-12-31T16:42:49.138Z,14.00
2022-12-31T16:47:56.093Z,14.82
2022-12-31T16:50:24.725Z,42.05
2022-12-31T16:55:27.524Z,15.30
2022-12-31T16:58:08.394Z,19.67
2022-12-31T17:00:38.174Z,24.52
2022-12-31T17:03:09.385Z,15.88
2022-12-31T17:06:06.491Z,240.05
2022-12-31T17:08:42.236Z,21.35
2022-12-31T17:11:24.534Z,40.88
2022-12-31T17:13:58.061Z,20.40
2022-12-31T17:16:27.194Z,181.13
2022-12-31T17:18:56.126Z,16.83
2022-12-31T17:21:27.740Z,29.85
2022-12-31T17:24:01.117Z,239.88
2022-12-31T17:26:33.010Z,16.85
2022-12-31T17:29:02.668Z,15.15
2022-12-31T17:31:35.408Z,25.35
2022-12-31T17:34:23.134Z,31.33
2022-12-31T17:37:18.397Z,15.88
2022-12-31T17:39:51.151Z,128.07
2022-12-31T17:42:30.089Z,9.00
2022-12-31T17:45:03.029Z,16.70
2022-12-31T17:47:36.063Z,15.40
2022-12-31T17:50:18.705Z,26.08
2022-12-31T17:52:46.199Z,22.13
2022-12-31T17:55:15.103Z,28.38
2022-12-31T17:57:48.163Z,20.33
2022-12-31T18:00:18.741Z,32.67
2022-12-31T18:02:45.629Z,21.48
2022-12-31T18:05:16.175Z,17.17
2022-12-31T18:07:43.187Z,13.40
2022-12-31T18:10:12.317Z,16.75
2022-12-31T18:12:41.523Z,128.40
2022-12-31T18:15:15.734Z,34.67
2022-12-31T18:17:43.254Z,18.60
2022-12-31T18:20:11.873Z,19.48
2022-12-31T18:22:40.766Z,43.33
2022-12-31T18:25:10.741Z,33.03
2022-12-31T18:27:39.784Z,11.70
2022-12-31T18:30:14.888Z,10.18
2022-12-31T18:32:42.773Z,51.42
2022-12-31T18:35:33.333Z,14.60
2022-12-31T18:38:01.827Z,43.13
2022-12-31T18:40:32.674Z,11.93
2022-12-31T18:43:04.966Z,11.35
2022-12-31T18:45:33.733Z,16.38
2022-12-31T18:48:00.543Z,19.05
2022-12-31T18:50:27.414Z,10.98
2022-12-31T18:52:54.270Z,14.57
2022-12-31T18:55:26.389Z,60.03
2022-12-31T18:57:53.422Z,11.63
2022-12-31T19:00:20.521Z,17.33
2022-12-31T19:02:48.804Z,14.63
2022-12-31T19:05:23.798Z,13.40
2022-12-31T19:07:51.135Z,14.95
2022-12-31T19:10:20.221Z,12.10
2022-12-31T19:12:47.898Z,14.65
2022-12-31T19:15:24.491Z,17.83
2022-12-31T19:17:52.783Z,32.88
2022-12-31T19:20:21.139Z,44.03
2022-12-31T19:22:48.028Z,12.93
2022-12-31T19:25:19.423Z,9.68
2022-12-31T19:27:47.665Z,24.08
2022-12-31T19:30:21.704Z,11.68
2022-12-31T19:32:48.698Z,26.50
2022-12-31T19:35:17.858Z,17.25
2022-12-31T19:37:46.674Z,15.27
2022-12-31T19:40:15.823Z,24.17
2022-12-31T19:42:44.043Z,12.55
2022-12-31T19:45:15.084Z,10.63
2022-12-31T19:47:43.117Z,26.88
2022-12-31T19:50:12.874Z,32.15
2022-12-31T19:52:42.092Z,18.27
2022-12-31T19:55:12.749Z,18.67
2022-12-31T19:57:40.577Z,24.20
2022-12-31T20:00:09.661Z,46.88
2022-12-31T20:02:39.897Z,12.60
2022-12-31T20:05:07.892Z,29.30
2022-12-31T20:07:34.943Z,71.35
2022-12-31T20:10:03.923Z,24.35
2022-12-31T20:12:30.904Z,64.32
2022-12-31T20:14:57.687Z,138.95
2022-12-31T20:17:25.138Z,34.22
2022-12-31T20:19:52.269Z,32.78
2022-12-31T20:22:19.165Z,15.73
2022-12-31T20:24:46.386Z,25.25
2022-12-31T20:27:18.700Z,20.58
2022-12-31T20:29:46.271Z,20.55
2022-12-31T20:32:13.047Z,15.40
2022-12-31T20:34:39.991Z,22.10
2022-12-31T20:37:06.835Z,21.05
2022-12-31T20:39:33.662Z,31.80
2022-12-31T20:42:00.414Z,28.25
2022-12-31T20:44:28.555Z,34.70
2022-12-31T20:46:55.463Z,52.80
2022-12-31T20:49:44.412Z,42.63
2022-12-31T20:52:09.595Z,21.10
2022-12-31T20:54:37.490Z,22.95
2022-12-31T20:57:04.379Z,18.75
2022-12-31T20:59:32.597Z,15.80
2022-12-31T21:04:47.518Z,17.70
2022-12-31T21:07:14.360Z,25.15
2022-12-31T21:09:41.367Z,16.50
2022-12-31T21:12:28.649Z,14.07
2022-12-31T21:14:57.056Z,82.20
2022-12-31T21:17:24.083Z,11.68
2022-12-31T21:19:50.817Z,22.35
2022-12-31T21:22:17.718Z,15.02
2022-12-31T21:24:44.496Z,15.43
2022-12-31T21:27:11.753Z,23.48
2022-12-31T21:30:01.656Z,17.67
2022-12-31T21:32:26.692Z,12.27
2022-12-31T21:35:23.098Z,9.27
2022-12-31T21:40:30.503Z,12.57
2022-12-31T21:42:57.687Z,18.23
2022-12-31T21:45:25.557Z,19.52
2022-12-31T21:48:12.481Z,31.45
2022-12-31T21:50:39.484Z,25.05
2022-12-31T21:53:06.367Z,34.10
2022-12-31T21:55:51.528Z,33.38
2022-12-31T21:58:27.283Z,33.25
2022-12-31T22:01:13.918Z,13.90
2022-12-31T22:03:42.959Z,20.05
2022-12-31T22:06:13.105Z,13.23
2022-12-31T22:08:42.560Z,34.47
2022-12-31T22:11:10.995Z,82.45
2022-12-31T22:13:39.006Z,25.67
2022-12-31T22:16:06.945Z,34.92
2022-12-31T22:18:35.653Z,82.72
2022-12-31T22:21:10.812Z,38.55
2022-12-31T22:23:43.344Z,19.98
2022-12-31T22:26:12.659Z,13.05
2022-12-31T22:28:40.679Z,55.92
2022-12-31T22:31:08.369Z,16.77
2022-12-31T22:33:35.433Z,21.85
2022-12-31T22:36:05.823Z,25.45
2022-12-31T22:38:34.568Z,27.90
2022-12-31T22:41:03.027Z,13.70
2022-12-31T22:43:31.419Z,17.20
2022-12-31T22:45:58.426Z,19.33
2022-12-31T22:48:25.287Z,24.90
2022-12-31T22:50:56.709Z,20.88
2022-12-31T22:53:25.021Z,14.68
2022-12-31T22:55:53.825Z,40.28
2022-12-31T22:58:21.341Z,16.23
2022-12-31T23:00:48.194Z,264.30
2022-12-31T23:03:15.277Z,159.93
2022-12-31T23:05:42.187Z,292.17
2022-12-31T23:08:18.676Z,459.98
2022-12-31T23:10:59.820Z,300.73
2022-12-31T23:13:50.702Z,364.85
2022-12-31T23:16:37.204Z,283.55
2022-12-31T23:19:23.672Z,238.60
2022-12-31T23:22:09.639Z,240.23
2022-12-31T23:24:37.103Z,107.82
2022-12-31T23:27:05.801Z,210.63
2022-12-31T23:29:33.282Z,256.88
2022-12-31T23:32:00.461Z,114.30
2022-12-31T23:34:27.438Z,306.08
2022-12-31T23:36:54.454Z,317.45
2022-12-31T23:39:21.383Z,305.38
2022-12-31T23:41:48.403Z,92.47
2022-12-31T23:44:16.995Z,50.13
2022-12-31T23:46:44.872Z,72.97
2022-12-31T23:49:12.094Z,84.55
2022-12-31T23:51:40.336Z,36.83
2022-12-31T23:54:07.851Z,48.00
2022-12-31T23:56:34.977Z,51.70
2022-12-31T23:59:02.310Z,61.05
